sensor_id;sensor_type;location;lat;lon;timestamp;pressure;altitude;pressure_sealevel;temperature;humidity
31483;BME280;18103;52.246;8.052;2024-02-23T00:01:16;96983.50;;;6.45;91.96
31483;BME280;18103;52.246;8.052;2024-02-23T00:03:41;96997.00;;;6.33;92.45
31483;BME280;18103;52.246;8.052;2024-02-23T00:06:09;96999.78;;;6.17;91.55
31483;BME280;18103;52.246;8.052;2024-02-23T00:08:37;97004.72;;;6.12;90.69
31483;BME280;18103;52.246;8.052;2024-02-23T00:11:03;96978.78;;;6.02;90.06
31483;BME280;18103;52.246;8.052;2024-02-23T00:13:28;97005.13;;;6.01;90.28
31483;BME280;18103;52.246;8.052;2024-02-23T00:15:56;97029.34;;;5.94;91.07
31483;BME280;18103;52.246;8.052;2024-02-23T00:18:21;97043.63;;;5.92;93.65
31483;BME280;18103;52.246;8.052;2024-02-23T00:20:49;97072.97;;;5.71;96.79
31483;BME280;18103;52.246;8.052;2024-02-23T00:23:17;97107.00;;;5.71;97.15
31483;BME280;18103;52.246;8.052;2024-02-23T00:25:44;97115.31;;;5.43;98.01
31483;BME280;18103;52.246;8.052;2024-02-23T00:28:12;97142.59;;;5.40;97.97
31483;BME280;18103;52.246;8.052;2024-02-23T00:30:39;97143.28;;;5.26;98.38
31483;BME280;18103;52.246;8.052;2024-02-23T00:33:07;97166.66;;;5.27;98.40
31483;BME280;18103;52.246;8.052;2024-02-23T00:35:35;97171.91;;;5.11;97.95
31483;BME280;18103;52.246;8.052;2024-02-23T00:38:00;97173.22;;;5.07;97.79
31483;BME280;18103;52.246;8.052;2024-02-23T00:40:28;97180.25;;;4.98;98.37
31483;BME280;18103;52.246;8.052;2024-02-23T00:42:53;97200.31;;;4.89;99.03
31483;BME280;18103;52.246;8.052;2024-02-23T00:45:19;97212.06;;;4.85;99.21
31483;BME280;18103;52.246;8.052;2024-02-23T00:47:44;97225.47;;;4.90;99.42
31483;BME280;18103;52.246;8.052;2024-02-23T00:50:12;97232.47;;;4.65;99.63
31483;BME280;18103;52.246;8.052;2024-02-23T00:52:37;97242.78;;;4.75;99.27
31483;BME280;18103;52.246;8.052;2024-02-23T00:55:03;97252.84;;;4.61;99.79
31483;BME280;18103;52.246;8.052;2024-02-23T00:57:28;97248.47;;;4.62;100.00
31483;BME280;18103;52.246;8.052;2024-02-23T00:59:57;97264.59;;;4.49;100.00
31483;BME280;18103;52.246;8.052;2024-02-23T01:02:22;97279.91;;;4.44;100.00
31483;BME280;18103;52.246;8.052;2024-02-23T01:04:48;97284.16;;;4.45;100.00
31483;BME280;18103;52.246;8.052;2024-02-23T01:07:13;97290.84;;;4.39;100.00
31483;BME280;18103;52.246;8.052;2024-02-23T01:09:39;97311.16;;;4.27;100.00
31483;BME280;18103;52.246;8.052;2024-02-23T01:12:04;97311.97;;;4.28;100.00
31483;BME280;18103;52.246;8.052;2024-02-23T01:14:30;97324.53;;;4.24;100.00
31483;BME280;18103;52.246;8.052;2024-02-23T01:16:58;97323.69;;;4.16;100.00
31483;BME280;18103;52.246;8.052;2024-02-23T01:19:23;97328.44;;;4.20;100.00
31483;BME280;18103;52.246;8.052;2024-02-23T01:21:51;97349.31;;;4.20;100.00
31483;BME280;18103;52.246;8.052;2024-02-23T01:24:27;97346.50;;;4.14;100.00
31483;BME280;18103;52.246;8.052;2024-02-23T01:26:55;97362.09;;;4.05;100.00
31483;BME280;18103;52.246;8.052;2024-02-23T01:29:24;97352.28;;;3.99;100.00
31483;BME280;18103;52.246;8.052;2024-02-23T01:31:52;97367.59;;;3.94;100.00
31483;BME280;18103;52.246;8.052;2024-02-23T01:34:22;97369.22;;;3.95;100.00
31483;BME280;18103;52.246;8.052;2024-02-23T01:36:52;97378.03;;;3.94;100.00
31483;BME280;18103;52.246;8.052;2024-02-23T01:39:22;97403.88;;;4.05;100.00
31483;BME280;18103;52.246;8.052;2024-02-23T01:41:52;97423.50;;;3.91;100.00
31483;BME280;18103;52.246;8.052;2024-02-23T01:44:23;97403.25;;;3.85;100.00
31483;BME280;18103;52.246;8.052;2024-02-23T01:46:50;97408.22;;;3.97;100.00
31483;BME280;18103;52.246;8.052;2024-02-23T01:49:20;97415.72;;;4.00;100.00
31483;BME280;18103;52.246;8.052;2024-02-23T01:51:45;97401.28;;;3.87;100.00
31483;BME280;18103;52.246;8.052;2024-02-23T01:54:11;97411.72;;;3.87;100.00
31483;BME280;18103;52.246;8.052;2024-02-23T01:56:37;97413.75;;;3.93;100.00
31483;BME280;18103;52.246;8.052;2024-02-23T01:59:07;97431.53;;;3.98;100.00
31483;BME280;18103;52.246;8.052;2024-02-23T02:01:35;97425.13;;;3.92;100.00
31483;BME280;18103;52.246;8.052;2024-02-23T02:04:01;97428.38;;;3.86;100.00
31483;BME280;18103;52.246;8.052;2024-02-23T02:06:26;97419.38;;;3.89;100.00
31483;BME280;18103;52.246;8.052;2024-02-23T02:08:54;97436.84;;;3.88;100.00
31483;BME280;18103;52.246;8.052;2024-02-23T02:11:22;97441.47;;;3.94;100.00
31483;BME280;18103;52.246;8.052;2024-02-23T02:13:47;97450.19;;;3.85;100.00
31483;BME280;18103;52.246;8.052;2024-02-23T02:16:14;97459.53;;;3.88;100.00
31483;BME280;18103;52.246;8.052;2024-02-23T02:18:40;97449.09;;;3.88;100.00
31483;BME280;18103;52.246;8.052;2024-02-23T02:21:05;97451.91;;;3.76;100.00
31483;BME280;18103;52.246;8.052;2024-02-23T02:23:35;97458.59;;;3.79;100.00
31483;BME280;18103;52.246;8.052;2024-02-23T02:26:02;97466.50;;;3.87;99.69
31483;BME280;18103;52.246;8.052;2024-02-23T02:28:30;97457.34;;;3.83;100.00
31483;BME280;18103;52.246;8.052;2024-02-23T02:30:58;97465.25;;;3.73;100.00
31483;BME280;18103;52.246;8.052;2024-02-23T02:33:23;97464.75;;;3.88;99.89
31483;BME280;18103;52.246;8.052;2024-02-23T02:35:53;97473.06;;;3.91;99.30
31483;BME280;18103;52.246;8.052;2024-02-23T02:38:21;97473.59;;;3.77;99.87
31483;BME280;18103;52.246;8.052;2024-02-23T02:40:46;97472.34;;;3.81;100.00
31483;BME280;18103;52.246;8.052;2024-02-23T02:43:14;97471.81;;;3.77;100.00
31483;BME280;18103;52.246;8.052;2024-02-23T02:45:40;97483.16;;;3.86;99.75
31483;BME280;18103;52.246;8.052;2024-02-23T02:48:08;97483.44;;;3.83;100.00
31483;BME280;18103;52.246;8.052;2024-02-23T02:50:33;97475.75;;;3.82;99.14
31483;BME280;18103;52.246;8.052;2024-02-23T02:53:01;97484.34;;;3.74;99.90
31483;BME280;18103;52.246;8.052;2024-02-23T02:55:26;97494.16;;;3.80;99.80
31483;BME280;18103;52.246;8.052;2024-02-23T02:57:52;97494.16;;;3.80;99.95
31483;BME280;18103;52.246;8.052;2024-02-23T03:00:19;97510.38;;;3.84;99.87
31483;BME280;18103;52.246;8.052;2024-02-23T03:02:47;97514.47;;;3.86;99.28
31483;BME280;18103;52.246;8.052;2024-02-23T03:05:15;97502.75;;;3.90;99.65
31483;BME280;18103;52.246;8.052;2024-02-23T03:07:41;97506.50;;;3.88;98.80
31483;BME280;18103;52.246;8.052;2024-02-23T03:10:06;97507.59;;;3.85;99.07
31483;BME280;18103;52.246;8.052;2024-02-23T03:12:34;97508.25;;;3.87;98.82
31483;BME280;18103;52.246;8.052;2024-02-23T03:15:02;97520.44;;;3.97;98.81
31483;BME280;18103;52.246;8.052;2024-02-23T03:17:28;97507.38;;;3.97;98.73
31483;BME280;18103;52.246;8.052;2024-02-23T03:19:56;97520.44;;;3.97;97.68
31483;BME280;18103;52.246;8.052;2024-02-23T03:22:23;97515.34;;;3.95;97.94
31483;BME280;18103;52.246;8.052;2024-02-23T03:24:48;97523.69;;;3.99;98.20
31483;BME280;18103;52.246;8.052;2024-02-23T03:27:16;97507.69;;;3.93;97.28
31483;BME280;18103;52.246;8.052;2024-02-23T03:29:43;97528.78;;;4.00;97.55
31483;BME280;18103;52.246;8.052;2024-02-23T03:32:11;97525.63;;;3.97;97.01
31483;BME280;18103;52.246;8.052;2024-02-23T03:34:39;97531.81;;;3.96;96.58
31483;BME280;18103;52.246;8.052;2024-02-23T03:37:09;97536.22;;;3.95;96.61
31483;BME280;18103;52.246;8.052;2024-02-23T03:39:34;97531.97;;;3.94;95.94
31483;BME280;18103;52.246;8.052;2024-02-23T03:42:02;97532.50;;;3.98;96.79
31483;BME280;18103;52.246;8.052;2024-02-23T03:44:29;97541.97;;;3.99;95.63
31483;BME280;18103;52.246;8.052;2024-02-23T03:46:59;97541.69;;;4.02;95.90
31483;BME280;18103;52.246;8.052;2024-02-23T03:49:27;97552.31;;;4.08;95.55
31483;BME280;18103;52.246;8.052;2024-02-23T03:51:54;97555.25;;;4.05;95.84
31483;BME280;18103;52.246;8.052;2024-02-23T03:54:22;97551.66;;;4.06;95.81
31483;BME280;18103;52.246;8.052;2024-02-23T03:56:50;97565.19;;;4.02;96.18
31483;BME280;18103;52.246;8.052;2024-02-23T03:59:20;97556.00;;;3.98;94.39
31483;BME280;18103;52.246;8.052;2024-02-23T04:01:46;97562.84;;;3.99;95.02
31483;BME280;18103;52.246;8.052;2024-02-23T04:04:13;97572.84;;;4.03;93.01
31483;BME280;18103;52.246;8.052;2024-02-23T04:06:43;97568.44;;;4.04;92.78
31483;BME280;18103;52.246;8.052;2024-02-23T04:09:11;97577.78;;;4.06;93.32
31483;BME280;18103;52.246;8.052;2024-02-23T04:11:39;97579.41;;;4.07;92.29
31483;BME280;18103;52.246;8.052;2024-02-23T04:14:07;97585.16;;;4.11;91.41
31483;BME280;18103;52.246;8.052;2024-02-23T04:16:35;97584.03;;;4.14;91.74
31483;BME280;18103;52.246;8.052;2024-02-23T04:19:00;97585.84;;;4.13;91.93
31483;BME280;18103;52.246;8.052;2024-02-23T04:21:26;97584.72;;;4.16;90.58
31483;BME280;18103;52.246;8.052;2024-02-23T04:23:51;97578.81;;;4.14;91.54
31483;BME280;18103;52.246;8.052;2024-02-23T04:26:17;97591.28;;;4.20;91.03
31483;BME280;18103;52.246;8.052;2024-02-23T04:28:42;97595.31;;;4.14;91.34
31483;BME280;18103;52.246;8.052;2024-02-23T04:31:08;97600.53;;;4.14;91.98
31483;BME280;18103;52.246;8.052;2024-02-23T04:33:35;97611.94;;;4.13;90.79
31483;BME280;18103;52.246;8.052;2024-02-23T04:36:01;97598.66;;;4.06;91.11
31483;BME280;18103;52.246;8.052;2024-02-23T04:38:27;97610.00;;;4.15;90.35
31483;BME280;18103;52.246;8.052;2024-02-23T04:40:52;97613.19;;;4.09;91.28
31483;BME280;18103;52.246;8.052;2024-02-23T04:43:20;97610.00;;;4.15;92.17
31483;BME280;18103;52.246;8.052;2024-02-23T04:45:45;97616.84;;;4.16;91.46
31483;BME280;18103;52.246;8.052;2024-02-23T04:48:13;97616.31;;;4.13;90.70
31483;BME280;18103;52.246;8.052;2024-02-23T04:50:41;97624.16;;;4.13;90.63
31483;BME280;18103;52.246;8.052;2024-02-23T04:53:08;97629.81;;;4.08;91.37
31483;BME280;18103;52.246;8.052;2024-02-23T04:55:34;97636.63;;;4.19;90.61
31483;BME280;18103;52.246;8.052;2024-02-23T04:57:59;97638.34;;;4.10;91.47
31483;BME280;18103;52.246;8.052;2024-02-23T05:00:30;97630.31;;;4.21;90.13
31483;BME280;18103;52.246;8.052;2024-02-23T05:03:01;97638.03;;;4.13;91.34
31483;BME280;18103;52.246;8.052;2024-02-23T05:05:30;97633.56;;;4.23;91.36
31483;BME280;18103;52.246;8.052;2024-02-23T05:07:59;97658.09;;;4.13;90.81
31483;BME280;18103;52.246;8.052;2024-02-23T05:10:24;97656.16;;;4.15;90.42
31483;BME280;18103;52.246;8.052;2024-02-23T05:12:50;97655.22;;;4.16;90.23
31483;BME280;18103;52.246;8.052;2024-02-23T05:15:18;97649.59;;;4.10;90.71
31483;BME280;18103;52.246;8.052;2024-02-23T05:17:45;97653.72;;;4.13;91.12
31483;BME280;18103;52.246;8.052;2024-02-23T05:20:13;97658.63;;;4.16;90.23
31483;BME280;18103;52.246;8.052;2024-02-23T05:22:39;97655.47;;;4.13;90.77
31483;BME280;18103;52.246;8.052;2024-02-23T05:25:06;97658.47;;;4.18;90.60
31483;BME280;18103;52.246;8.052;2024-02-23T05:27:34;97657.66;;;4.17;91.29
31483;BME280;18103;52.246;8.052;2024-02-23T05:30:01;97660.84;;;4.11;90.55
31483;BME280;18103;52.246;8.052;2024-02-23T05:32:27;97657.13;;;4.14;91.03
31483;BME280;18103;52.246;8.052;2024-02-23T05:34:57;97671.53;;;4.18;90.67
31483;BME280;18103;52.246;8.052;2024-02-23T05:37:22;97674.28;;;4.16;90.96
31483;BME280;18103;52.246;8.052;2024-02-23T05:39:51;97668.06;;;4.27;90.19
31483;BME280;18103;52.246;8.052;2024-02-23T05:42:16;97666.47;;;4.16;92.02
31483;BME280;18103;52.246;8.052;2024-02-23T05:44:49;97671.03;;;4.14;90.74
31483;BME280;18103;52.246;8.052;2024-02-23T05:47:17;97672.34;;;4.18;89.35
31483;BME280;18103;52.246;8.052;2024-02-23T05:49:47;97680.56;;;4.23;90.63
31483;BME280;18103;52.246;8.052;2024-02-23T05:52:15;97677.94;;;4.23;91.12
31483;BME280;18103;52.246;8.052;2024-02-23T05:54:40;97683.47;;;4.20;91.29
31483;BME280;18103;52.246;8.052;2024-02-23T05:57:08;97682.50;;;4.21;89.92
31483;BME280;18103;52.246;8.052;2024-02-23T05:59:36;97683.72;;;4.27;90.65
31483;BME280;18103;52.246;8.052;2024-02-23T06:02:07;97684.28;;;4.21;90.55
31483;BME280;18103;52.246;8.052;2024-02-23T06:04:35;97697.19;;;4.22;90.41
31483;BME280;18103;52.246;8.052;2024-02-23T06:07:00;97686.31;;;4.27;90.43
31483;BME280;18103;52.246;8.052;2024-02-23T06:09:28;97695.97;;;4.17;91.53
31483;BME280;18103;52.246;8.052;2024-02-23T06:11:55;97698.31;;;4.20;90.34
31483;BME280;18103;52.246;8.052;2024-02-23T06:14:21;97698.41;;;4.28;90.29
31483;BME280;18103;52.246;8.052;2024-02-23T06:16:48;97709.91;;;4.35;89.76
31483;BME280;18103;52.246;8.052;2024-02-23T06:19:18;97709.69;;;4.28;90.97
31483;BME280;18103;52.246;8.052;2024-02-23T06:21:47;97718.78;;;4.24;90.45
31483;BME280;18103;52.246;8.052;2024-02-23T06:24:14;97721.84;;;4.38;89.13
31483;BME280;18103;52.246;8.052;2024-02-23T06:26:39;97714.75;;;4.30;89.82
31483;BME280;18103;52.246;8.052;2024-02-23T06:29:09;97718.56;;;4.36;90.08
31483;BME280;18103;52.246;8.052;2024-02-23T06:31:38;97717.81;;;4.25;90.72
31483;BME280;18103;52.246;8.052;2024-02-23T06:34:07;97714.06;;;4.28;89.35
31483;BME280;18103;52.246;8.052;2024-02-23T06:36:32;97712.66;;;4.34;89.79
31483;BME280;18103;52.246;8.052;2024-02-23T06:39:05;97708.19;;;4.26;89.76
31483;BME280;18103;52.246;8.052;2024-02-23T06:41:31;97721.88;;;4.28;89.88
31483;BME280;18103;52.246;8.052;2024-02-23T06:43:56;97723.41;;;4.31;90.22
31483;BME280;18103;52.246;8.052;2024-02-23T06:46:22;97720.47;;;4.34;89.07
31483;BME280;18103;52.246;8.052;2024-02-23T06:48:50;97729.72;;;4.28;88.93
31483;BME280;18103;52.246;8.052;2024-02-23T06:51:17;97723.78;;;4.36;89.44
31483;BME280;18103;52.246;8.052;2024-02-23T06:53:45;97725.84;;;4.32;88.96
31483;BME280;18103;52.246;8.052;2024-02-23T06:56:11;97726.84;;;4.31;89.43
31483;BME280;18103;52.246;8.052;2024-02-23T06:58:38;97736.09;;;4.25;89.26
31483;BME280;18103;52.246;8.052;2024-02-23T07:01:06;97736.75;;;4.27;89.68
31483;BME280;18103;52.246;8.052;2024-02-23T07:03:37;97734.53;;;4.33;89.61
31483;BME280;18103;52.246;8.052;2024-02-23T07:06:03;97744.56;;;4.27;89.99
31483;BME280;18103;52.246;8.052;2024-02-23T07:08:31;97742.78;;;4.28;88.40
31483;BME280;18103;52.246;8.052;2024-02-23T07:10:56;97718.53;;;4.18;88.90
31483;BME280;18103;52.246;8.052;2024-02-23T07:13:24;97743.13;;;4.15;89.63
31483;BME280;18103;52.246;8.052;2024-02-23T07:15:54;97742.13;;;4.26;88.32
31483;BME280;18103;52.246;8.052;2024-02-23T07:18:21;97749.41;;;4.22;89.41
31483;BME280;18103;52.246;8.052;2024-02-23T07:20:49;97751.88;;;4.24;88.66
31483;BME280;18103;52.246;8.052;2024-02-23T07:23:17;97754.97;;;4.37;87.92
31483;BME280;18103;52.246;8.052;2024-02-23T07:25:42;97738.91;;;4.32;87.79
31483;BME280;18103;52.246;8.052;2024-02-23T07:28:08;97740.88;;;4.30;88.07
31483;BME280;18103;52.246;8.052;2024-02-23T07:30:35;97753.72;;;4.41;87.64
31483;BME280;18103;52.246;8.052;2024-02-23T07:33:05;97744.13;;;4.32;88.42
31483;BME280;18103;52.246;8.052;2024-02-23T07:35:33;97740.75;;;4.50;87.72
31483;BME280;18103;52.246;8.052;2024-02-23T07:37:58;97743.59;;;4.56;88.01
31483;BME280;18103;52.246;8.052;2024-02-23T07:40:24;97742.34;;;4.60;86.53
31483;BME280;18103;52.246;8.052;2024-02-23T07:42:52;97739.19;;;4.57;87.01
31483;BME280;18103;52.246;8.052;2024-02-23T07:45:18;97743.59;;;4.56;86.91
31483;BME280;18103;52.246;8.052;2024-02-23T07:47:43;97740.31;;;4.72;87.75
31483;BME280;18103;52.246;8.052;2024-02-23T07:50:09;97744.53;;;4.83;86.90
31483;BME280;18103;52.246;8.052;2024-02-23T07:52:34;97754.91;;;4.93;88.30
31483;BME280;18103;52.246;8.052;2024-02-23T07:55:01;97751.53;;;4.83;86.07
31483;BME280;18103;52.246;8.052;2024-02-23T07:57:34;97764.53;;;4.92;87.71
31483;BME280;18103;52.246;8.052;2024-02-23T08:00:00;97764.03;;;5.07;86.02
31483;BME280;18103;52.246;8.052;2024-02-23T08:02:25;97763.78;;;5.18;87.52
31483;BME280;18103;52.246;8.052;2024-02-23T08:04:54;97767.59;;;5.24;85.93
31483;BME280;18103;52.246;8.052;2024-02-23T08:07:22;97758.41;;;5.38;84.32
31483;BME280;18103;52.246;8.052;2024-02-23T08:09:50;97760.50;;;5.60;87.69
31483;BME280;18103;52.246;8.052;2024-02-23T08:12:16;97764.63;;;5.63;85.87
31483;BME280;18103;52.246;8.052;2024-02-23T08:14:43;97768.41;;;5.69;86.21
31483;BME280;18103;52.246;8.052;2024-02-23T08:17:10;97759.88;;;5.66;86.40
31483;BME280;18103;52.246;8.052;2024-02-23T08:19:36;97764.91;;;5.86;86.59
31483;BME280;18103;52.246;8.052;2024-02-23T08:22:01;97768.66;;;6.02;84.85
31483;BME280;18103;52.246;8.052;2024-02-23T08:24:29;97759.56;;;5.88;85.76
31483;BME280;18103;52.246;8.052;2024-02-23T08:26:54;97755.66;;;6.26;83.15
31483;BME280;18103;52.246;8.052;2024-02-23T08:29:22;97755.78;;;6.16;84.42
31483;BME280;18103;52.246;8.052;2024-02-23T08:31:48;97766.78;;;6.20;84.73
31483;BME280;18103;52.246;8.052;2024-02-23T08:34:14;97765.88;;;6.03;84.03
31483;BME280;18103;52.246;8.052;2024-02-23T08:36:40;97773.91;;;6.02;83.20
31483;BME280;18103;52.246;8.052;2024-02-23T08:39:05;97768.28;;;5.96;83.73
31483;BME280;18103;52.246;8.052;2024-02-23T08:41:33;97763.81;;;6.15;82.30
31483;BME280;18103;52.246;8.052;2024-02-23T08:43:58;97778.88;;;6.13;84.08
31483;BME280;18103;52.246;8.052;2024-02-23T08:46:23;97787.41;;;6.23;82.82
31483;BME280;18103;52.246;8.052;2024-02-23T08:48:51;97774.81;;;6.19;83.32
31483;BME280;18103;52.246;8.052;2024-02-23T08:51:19;97791.13;;;6.12;81.20
31483;BME280;18103;52.246;8.052;2024-02-23T08:53:47;97798.34;;;5.92;82.17
31483;BME280;18103;52.246;8.052;2024-02-23T08:56:14;97801.88;;;6.01;81.95
31483;BME280;18103;52.246;8.052;2024-02-23T08:58:41;97803.81;;;5.99;82.58
31483;BME280;18103;52.246;8.052;2024-02-23T09:01:06;97807.97;;;5.83;80.88
31483;BME280;18103;52.246;8.052;2024-02-23T09:03:32;97816.53;;;5.94;81.28
31483;BME280;18103;52.246;8.052;2024-02-23T09:05:57;97816.91;;;5.99;83.37
31483;BME280;18103;52.246;8.052;2024-02-23T09:08:23;97818.25;;;6.03;82.39
31483;BME280;18103;52.246;8.052;2024-02-23T09:10:55;97802.34;;;5.78;79.82
31483;BME280;18103;52.246;8.052;2024-02-23T09:13:20;97808.41;;;5.79;81.66
31483;BME280;18103;52.246;8.052;2024-02-23T09:15:45;97808.59;;;5.86;81.59
31483;BME280;18103;52.246;8.052;2024-02-23T09:18:14;97812.13;;;5.76;81.12
31483;BME280;18103;52.246;8.052;2024-02-23T09:20:44;97813.88;;;5.68;78.62
31483;BME280;18103;52.246;8.052;2024-02-23T09:23:09;97810.72;;;5.82;82.12
31483;BME280;18103;52.246;8.052;2024-02-23T09:25:34;97812.66;;;5.80;81.67
31483;BME280;18103;52.246;8.052;2024-02-23T09:28:02;97817.53;;;5.75;82.52
31483;BME280;18103;52.246;8.052;2024-02-23T09:30:28;97817.59;;;5.83;82.55
31483;BME280;18103;52.246;8.052;2024-02-23T09:32:53;97810.53;;;5.57;80.34
31483;BME280;18103;52.246;8.052;2024-02-23T09:35:23;97817.94;;;5.62;80.87
31483;BME280;18103;52.246;8.052;2024-02-23T09:37:48;97821.22;;;5.64;82.54
31483;BME280;18103;52.246;8.052;2024-02-23T09:40:14;97831.94;;;5.79;82.62
31483;BME280;18103;52.246;8.052;2024-02-23T09:42:41;97833.13;;;5.58;81.25
31483;BME280;18103;52.246;8.052;2024-02-23T09:45:10;97834.09;;;5.57;80.40
31483;BME280;18103;52.246;8.052;2024-02-23T09:47:37;97829.97;;;5.55;80.97
31483;BME280;18103;52.246;8.052;2024-02-23T09:50:06;97829.66;;;5.58;79.36
31483;BME280;18103;52.246;8.052;2024-02-23T09:52:33;97835.59;;;5.60;81.77
31483;BME280;18103;52.246;8.052;2024-02-23T09:54:59;97828.78;;;5.67;82.12
31483;BME280;18103;52.246;8.052;2024-02-23T09:57:24;97837.09;;;5.62;82.08
31483;BME280;18103;52.246;8.052;2024-02-23T09:59:50;97833.63;;;5.62;81.35
31483;BME280;18103;52.246;8.052;2024-02-23T10:02:16;97841.47;;;5.62;81.78
31483;BME280;18103;52.246;8.052;2024-02-23T10:04:47;97841.63;;;5.60;80.30
31483;BME280;18103;52.246;8.052;2024-02-23T10:07:19;97829.66;;;5.58;81.00
31483;BME280;18103;52.246;8.052;2024-02-23T10:09:44;97837.50;;;5.58;81.44
31483;BME280;18103;52.246;8.052;2024-02-23T10:12:13;97839.91;;;5.51;80.83
31483;BME280;18103;52.246;8.052;2024-02-23T10:14:41;97826.31;;;5.65;80.69
31483;BME280;18103;52.246;8.052;2024-02-23T10:17:09;97843.50;;;5.68;80.62
31483;BME280;18103;52.246;8.052;2024-02-23T10:19:38;97839.97;;;5.59;81.35
31483;BME280;18103;52.246;8.052;2024-02-23T10:22:04;97837.66;;;5.56;81.09
31483;BME280;18103;52.246;8.052;2024-02-23T10:24:30;97831.47;;;5.57;81.18
31483;BME280;18103;52.246;8.052;2024-02-23T10:26:55;97832.97;;;5.60;79.94
31483;BME280;18103;52.246;8.052;2024-02-23T10:29:23;97832.44;;;5.56;80.81
31483;BME280;18103;52.246;8.052;2024-02-23T10:31:51;97829.22;;;5.62;79.90
31483;BME280;18103;52.246;8.052;2024-02-23T10:34:20;97830.41;;;5.68;80.75
31483;BME280;18103;52.246;8.052;2024-02-23T10:36:50;97842.50;;;5.69;80.22
31483;BME280;18103;52.246;8.052;2024-02-23T10:39:18;97837.97;;;5.71;80.56
31483;BME280;18103;52.246;8.052;2024-02-23T10:42:03;97838.63;;;5.73;79.91
31483;BME280;18103;52.246;8.052;2024-02-23T10:44:31;97832.09;;;5.77;79.23
31483;BME280;18103;52.246;8.052;2024-02-23T10:47:00;97841.53;;;5.88;80.06
31483;BME280;18103;52.246;8.052;2024-02-23T10:49:28;97837.81;;;5.73;79.89
31483;BME280;18103;52.246;8.052;2024-02-23T10:51:54;97846.31;;;5.75;80.63
31483;BME280;18103;52.246;8.052;2024-02-23T10:54:20;97846.69;;;5.80;79.21
31483;BME280;18103;52.246;8.052;2024-02-23T10:56:49;97850.97;;;5.81;80.24
31483;BME280;18103;52.246;8.052;2024-02-23T10:59:16;97848.50;;;5.79;78.59
31483;BME280;18103;52.246;8.052;2024-02-23T11:01:46;97849.38;;;5.88;79.42
31483;BME280;18103;52.246;8.052;2024-02-23T11:04:17;97836.28;;;5.88;80.26
31483;BME280;18103;52.246;8.052;2024-02-23T11:06:52;97840.50;;;5.81;79.06
31483;BME280;18103;52.246;8.052;2024-02-23T11:09:21;97847.94;;;5.94;78.43
31483;BME280;18103;52.246;8.052;2024-02-23T11:11:57;97838.44;;;5.93;79.24
31483;BME280;18103;52.246;8.052;2024-02-23T11:14:37;97833.34;;;6.09;77.14
31483;BME280;18103;52.246;8.052;2024-02-23T11:17:03;97847.41;;;6.08;79.28
31483;BME280;18103;52.246;8.052;2024-02-23T11:19:38;97839.84;;;6.05;78.93
31483;BME280;18103;52.246;8.052;2024-02-23T11:22:09;97845.47;;;5.92;77.92
31483;BME280;18103;52.246;8.052;2024-02-23T11:24:42;97841.81;;;6.03;79.71
31483;BME280;18103;52.246;8.052;2024-02-23T11:27:13;97853.75;;;6.06;78.88
31483;BME280;18103;52.246;8.052;2024-02-23T11:29:42;97847.72;;;6.05;78.05
31483;BME280;18103;52.246;8.052;2024-02-23T11:32:18;97857.38;;;6.05;76.83
31483;BME280;18103;52.246;8.052;2024-02-23T11:34:56;97859.00;;;6.06;77.11
31483;BME280;18103;52.246;8.052;2024-02-23T11:37:22;97848.69;;;6.04;77.83
31483;BME280;18103;52.246;8.052;2024-02-23T11:39:50;97847.56;;;6.07;77.88
31483;BME280;18103;52.246;8.052;2024-02-23T11:42:18;97838.53;;;6.01;78.29
31483;BME280;18103;52.246;8.052;2024-02-23T11:44:45;97861.69;;;5.96;77.71
31483;BME280;18103;52.246;8.052;2024-02-23T11:47:11;97849.53;;;6.05;77.82
31483;BME280;18103;52.246;8.052;2024-02-23T11:49:41;97850.91;;;6.17;76.29
31483;BME280;18103;52.246;8.052;2024-02-23T11:52:09;97849.16;;;6.26;75.96
31483;BME280;18103;52.246;8.052;2024-02-23T11:54:37;97841.19;;;6.36;77.17
31483;BME280;18103;52.246;8.052;2024-02-23T11:57:03;97833.66;;;6.32;75.11
31483;BME280;18103;52.246;8.052;2024-02-23T11:59:28;97846.47;;;6.44;75.58
31483;BME280;18103;52.246;8.052;2024-02-23T12:01:57;97830.06;;;6.42;75.93
31483;BME280;18103;52.246;8.052;2024-02-23T12:04:26;97836.00;;;6.44;77.29
31483;BME280;18103;52.246;8.052;2024-02-23T12:06:52;97822.13;;;6.60;75.45
31483;BME280;18103;52.246;8.052;2024-02-23T12:09:21;97835.34;;;6.50;77.34
31483;BME280;18103;52.246;8.052;2024-02-23T12:11:49;97835.00;;;6.45;75.73
31483;BME280;18103;52.246;8.052;2024-02-23T12:14:14;97842.03;;;6.79;75.77
31483;BME280;18103;52.246;8.052;2024-02-23T12:16:43;97836.06;;;6.68;76.11
31483;BME280;18103;52.246;8.052;2024-02-23T12:19:08;97832.25;;;6.97;74.93
31483;BME280;18103;52.246;8.052;2024-02-23T12:21:34;97833.50;;;6.85;76.34
31483;BME280;18103;52.246;8.052;2024-02-23T12:24:07;97837.47;;;6.89;74.63
31483;BME280;18103;52.246;8.052;2024-02-23T12:26:35;97833.72;;;6.92;73.58
31483;BME280;18103;52.246;8.052;2024-02-23T12:29:03;97834.06;;;6.97;73.84
31483;BME280;18103;52.246;8.052;2024-02-23T12:31:32;97830.94;;;7.01;74.30
31483;BME280;18103;52.246;8.052;2024-02-23T12:33:57;97820.75;;;6.90;72.75
31483;BME280;18103;52.246;8.052;2024-02-23T12:36:28;97834.06;;;6.97;74.73
31483;BME280;18103;52.246;8.052;2024-02-23T12:38:58;97853.22;;;6.97;75.26
31483;BME280;18103;52.246;8.052;2024-02-23T12:41:23;97860.53;;;6.77;75.21
31483;BME280;18103;52.246;8.052;2024-02-23T12:43:51;97839.75;;;6.92;75.39
31483;BME280;18103;52.246;8.052;2024-02-23T12:46:20;97851.38;;;6.90;73.32
31483;BME280;18103;52.246;8.052;2024-02-23T12:48:46;97850.91;;;6.86;73.05
31483;BME280;18103;52.246;8.052;2024-02-23T12:51:11;97839.44;;;6.87;74.54
31483;BME280;18103;52.246;8.052;2024-02-23T12:53:39;97847.78;;;6.91;76.58
31483;BME280;18103;52.246;8.052;2024-02-23T12:56:08;97857.97;;;6.94;76.41
31483;BME280;18103;52.246;8.052;2024-02-23T12:58:37;97859.09;;;6.83;77.17
31483;BME280;18103;52.246;8.052;2024-02-23T13:01:06;97861.69;;;6.75;78.60
31483;BME280;18103;52.246;8.052;2024-02-23T13:03:33;97863.66;;;6.81;79.41
31483;BME280;18103;52.246;8.052;2024-02-23T13:05:59;97857.28;;;6.83;78.04
31483;BME280;18103;52.246;8.052;2024-02-23T13:08:25;97851.69;;;6.78;78.79
31483;BME280;18103;52.246;8.052;2024-02-23T13:10:52;97869.88;;;6.80;78.67